createdAt,value
2022-08-12T00:02:03.342Z,14.91
2022-08-12T00:04:48.372Z,14.86
2022-08-12T00:07:34.012Z,14.82
2022-08-12T00:10:19.149Z,14.79
2022-08-12T00:13:04.507Z,14.74
2022-08-12T00:15:49.841Z,14.67
2022-08-12T00:18:38.740Z,14.64
2022-08-12T00:21:23.921Z,14.68
2022-08-12T00:24:12.112Z,14.67
2022-08-12T00:26:59.273Z,14.75
2022-08-12T00:29:47.796Z,14.80
2022-08-12T00:32:36.000Z,14.60
2022-08-12T00:35:24.409Z,14.66
2022-08-12T00:38:19.474Z,14.61
2022-08-12T00:41:04.904Z,14.55
2022-08-12T00:43:31.796Z,14.52
2022-08-12T00:46:17.548Z,14.50
2022-08-12T00:48:44.446Z,14.47
2022-08-12T00:51:11.507Z,14.45
2022-08-12T00:53:39.003Z,14.39
2022-08-12T00:56:06.940Z,14.36
2022-08-12T00:58:34.716Z,14.35
2022-08-12T01:01:02.688Z,14.36
2022-08-12T01:03:54.307Z,14.35
2022-08-12T01:06:43.437Z,14.25
2022-08-12T01:09:29.067Z,14.17
2022-08-12T01:11:56.188Z,14.22
2022-08-12T01:14:28.872Z,14.32
2022-08-12T01:16:58.173Z,14.34
2022-08-12T01:19:26.199Z,14.28
2022-08-12T01:22:25.155Z,14.22
2022-08-12T01:24:52.261Z,14.16
2022-08-12T01:27:20.248Z,14.11
2022-08-12T01:29:48.791Z,14.10
2022-08-12T01:32:15.931Z,14.09
2022-08-12T01:34:48.642Z,14.04
2022-08-12T01:37:15.458Z,14.04
2022-08-12T01:40:34.490Z,14.05
2022-08-12T01:42:34.300Z,14.12
2022-08-12T01:45:01.119Z,14.05
2022-08-12T01:47:31.167Z,13.92
2022-08-12T01:50:01.003Z,13.87
2022-08-12T01:52:33.328Z,13.82
2022-08-12T01:55:01.199Z,13.79
2022-08-12T01:57:59.359Z,13.75
2022-08-12T02:00:35.927Z,13.72
2022-08-12T02:03:26.473Z,13.75
2022-08-12T02:06:22.155Z,13.73
2022-08-12T02:09:11.300Z,13.73
2022-08-12T02:11:47.735Z,13.77
2022-08-12T02:14:20.876Z,13.79
2022-08-12T02:16:58.973Z,13.84
2022-08-12T02:19:46.854Z,13.84
2022-08-12T02:22:26.667Z,13.81
2022-08-12T02:24:54.361Z,13.67
2022-08-12T02:27:23.301Z,13.60
2022-08-12T02:29:52.793Z,13.62
2022-08-12T02:32:20.784Z,13.66
2022-08-12T02:34:47.600Z,13.72
2022-08-12T02:37:15.584Z,13.75
2022-08-12T02:39:48.391Z,13.81
2022-08-12T02:42:16.345Z,13.86
2022-08-12T02:44:45.994Z,14.02
2022-08-12T02:47:55.940Z,14.15
2022-08-12T02:50:02.520Z,14.16
2022-08-12T02:52:32.551Z,14.20
2022-08-12T02:55:04.553Z,14.27
2022-08-12T02:57:31.653Z,14.37
2022-08-12T02:59:58.851Z,14.41
2022-08-12T03:02:25.680Z,14.45
2022-08-12T03:04:58.983Z,14.49
2022-08-12T03:07:59.224Z,14.55
2022-08-12T03:10:36.948Z,14.67
2022-08-12T03:13:14.813Z,14.74
2022-08-12T03:15:41.996Z,14.76
2022-08-12T03:18:25.862Z,14.76
2022-08-12T03:20:56.588Z,14.83
2022-08-12T03:23:29.747Z,14.90
2022-08-12T03:26:02.650Z,15.00
2022-08-12T03:28:54.830Z,15.08
2022-08-12T03:31:22.898Z,15.20
2022-08-12T03:34:00.658Z,15.32
2022-08-12T03:36:30.659Z,15.37
2022-08-12T03:39:16.235Z,15.45
2022-08-12T03:42:07.753Z,15.61
2022-08-12T03:44:57.210Z,15.79
2022-08-12T03:47:46.580Z,15.95
2022-08-12T03:50:31.673Z,16.05
2022-08-12T03:53:17.286Z,16.19
2022-08-12T03:56:02.658Z,16.33
2022-08-12T03:58:48.469Z,16.41
2022-08-12T04:01:20.248Z,16.52
2022-08-12T04:03:53.305Z,16.65
2022-08-12T04:06:34.862Z,16.76
2022-08-12T04:09:15.787Z,16.86
2022-08-12T04:12:02.935Z,17.01
2022-08-12T04:14:29.974Z,17.09
2022-08-12T04:16:59.980Z,17.14
2022-08-12T04:19:29.454Z,17.23
2022-08-12T04:22:02.404Z,17.37
2022-08-12T04:24:35.493Z,17.48
2022-08-12T04:27:04.060Z,17.60
2022-08-12T04:30:16.850Z,17.74
2022-08-12T04:32:18.639Z,17.87
2022-08-12T04:34:47.855Z,17.97
2022-08-12T04:37:16.147Z,18.08
2022-08-12T04:39:43.080Z,18.18
2022-08-12T04:42:10.039Z,18.28
2022-08-12T04:44:45.625Z,18.33
2022-08-12T04:47:13.367Z,18.41
2022-08-12T04:49:41.056Z,18.47
2022-08-12T04:52:07.984Z,18.56
2022-08-12T04:54:34.873Z,18.66
2022-08-12T04:57:05.251Z,18.77
2022-08-12T04:59:47.921Z,18.88
2022-08-12T05:02:20.924Z,19.04
2022-08-12T05:04:52.165Z,19.15
2022-08-12T05:07:22.062Z,19.25
2022-08-12T05:09:58.992Z,19.39
2022-08-12T05:12:39.137Z,19.55
2022-08-12T05:15:18.933Z,19.70
2022-08-12T05:17:53.797Z,19.84
2022-08-12T05:20:26.006Z,19.94
2022-08-12T05:23:12.236Z,20.05
2022-08-12T05:25:40.334Z,20.23
2022-08-12T05:30:51.151Z,20.52
2022-08-12T05:33:18.232Z,20.62
2022-08-12T05:35:45.811Z,20.60
2022-08-12T05:38:32.695Z,20.62
2022-08-12T05:41:00.451Z,20.62
2022-08-12T05:43:28.074Z,20.72
2022-08-12T05:45:55.226Z,20.82
2022-08-12T05:48:25.780Z,20.91
2022-08-12T05:50:56.908Z,20.95
2022-08-12T05:53:29.740Z,20.97
2022-08-12T05:55:59.398Z,20.93
2022-08-12T05:58:26.419Z,20.96
2022-08-12T06:00:56.921Z,21.15
2022-08-12T06:03:25.639Z,21.21
2022-08-12T06:05:55.223Z,21.30
2022-08-12T06:08:23.314Z,21.44
2022-08-12T06:10:53.884Z,21.53
2022-08-12T06:13:28.057Z,21.57
2022-08-12T06:16:11.238Z,21.56
2022-08-12T06:18:41.198Z,21.51
2022-08-12T06:21:23.241Z,21.55
2022-08-12T06:23:50.577Z,21.62
2022-08-12T06:29:06.088Z,21.85
2022-08-12T06:31:34.768Z,21.85
2022-08-12T06:35:26.534Z,21.96
2022-08-12T06:36:50.179Z,22.10
2022-08-12T06:39:17.827Z,22.15
2022-08-12T06:42:32.138Z,22.20
2022-08-12T06:44:50.692Z,22.33
2022-08-12T06:47:19.902Z,22.40
2022-08-12T06:49:46.962Z,22.43
2022-08-12T06:52:14.074Z,22.50
2022-08-12T06:54:53.282Z,22.38
2022-08-12T06:57:57.404Z,22.34
2022-08-12T07:00:11.615Z,22.60
2022-08-12T07:02:41.535Z,22.81
2022-08-12T07:05:09.017Z,22.92
2022-08-12T07:07:39.270Z,22.91
2022-08-12T07:10:08.400Z,22.83
2022-08-12T07:12:36.193Z,22.93
2022-08-12T07:15:03.275Z,23.19
2022-08-12T07:17:36.480Z,23.32
2022-08-12T07:20:29.845Z,23.46
2022-08-12T07:22:57.578Z,23.38
2022-08-12T07:25:31.201Z,23.22
2022-08-12T07:28:19.084Z,23.38
2022-08-12T07:30:50.361Z,23.46
2022-08-12T07:33:18.310Z,23.40
2022-08-12T07:35:48.623Z,23.26
2022-08-12T07:38:34.526Z,23.24
2022-08-12T07:41:05.866Z,23.31
2022-08-12T07:43:34.057Z,23.49
2022-08-12T07:46:08.056Z,23.69
2022-08-12T07:48:36.821Z,23.93
2022-08-12T07:51:03.726Z,24.15
2022-08-12T07:56:20.273Z,24.53
2022-08-12T07:58:51.062Z,24.64
2022-08-12T08:01:21.535Z,24.64
2022-08-12T08:04:12.958Z,24.47
2022-08-12T08:06:45.444Z,24.51
2022-08-12T08:09:13.044Z,24.67
2022-08-12T08:11:58.466Z,24.74
2022-08-12T08:14:32.711Z,24.90
2022-08-12T08:17:01.213Z,25.06
2022-08-12T08:19:29.422Z,25.22
2022-08-12T08:21:56.836Z,25.37
2022-08-12T08:24:28.607Z,25.64
2022-08-12T08:27:00.437Z,25.91
2022-08-12T08:29:33.069Z,26.44
2022-08-12T08:32:01.676Z,26.98
2022-08-12T08:34:52.856Z,27.48
2022-08-12T08:37:20.483Z,27.80
2022-08-12T08:39:48.497Z,27.78
2022-08-12T08:42:34.078Z,27.33
2022-08-12T08:45:13.035Z,27.42
2022-08-12T08:47:44.125Z,27.54
2022-08-12T08:50:16.403Z,27.60
2022-08-12T08:52:44.151Z,27.63
2022-08-12T08:55:14.132Z,27.71
2022-08-12T08:57:43.641Z,27.84
2022-08-12T09:00:21.975Z,28.15
2022-08-12T09:02:59.404Z,28.83
2022-08-12T09:05:27.458Z,29.39
2022-08-12T09:10:47.305Z,30.34
2022-08-12T09:14:12.582Z,30.26
2022-08-12T09:16:42.762Z,30.10
2022-08-12T09:19:27.292Z,29.75
2022-08-12T09:21:56.723Z,30.04
2022-08-12T09:24:27.845Z,29.99
2022-08-12T09:26:55.420Z,29.92
2022-08-12T09:30:09.953Z,29.63
2022-08-12T09:32:57.061Z,29.79
2022-08-12T09:35:03.520Z,29.41
2022-08-12T09:37:58.317Z,30.15
2022-08-12T09:40:57.743Z,31.20
2022-08-12T09:43:46.916Z,30.54
2022-08-12T09:46:25.497Z,30.08
2022-08-12T09:48:56.541Z,30.05
2022-08-12T09:51:38.277Z,30.35
2022-08-12T09:54:32.907Z,31.13
2022-08-12T09:58:47.001Z,31.46
2022-08-12T10:00:13.675Z,31.87
2022-08-12T10:03:00.627Z,32.05
2022-08-12T10:06:20.387Z,31.87
2022-08-12T10:08:16.652Z,32.21
2022-08-12T10:11:06.156Z,32.95
2022-08-12T10:13:42.897Z,33.28
2022-08-12T10:16:22.046Z,33.72
2022-08-12T10:18:53.544Z,33.67
2022-08-12T10:21:36.217Z,33.09
2022-08-12T10:24:09.526Z,32.67
2022-08-12T10:26:55.941Z,32.46
2022-08-12T10:30:37.385Z,32.75
2022-08-12T10:32:44.631Z,33.01
2022-08-12T10:35:18.358Z,33.35
2022-08-12T10:38:34.770Z,32.35
2022-08-12T10:40:34.438Z,32.45
2022-08-12T10:43:23.717Z,32.87
2022-08-12T10:45:58.257Z,33.02
2022-08-12T10:48:33.414Z,33.29
2022-08-12T10:52:02.961Z,33.90
2022-08-12T10:53:52.662Z,33.28
2022-08-12T10:56:19.843Z,32.92
2022-08-12T10:58:50.871Z,33.97
2022-08-12T11:01:48.832Z,34.74
2022-08-12T11:04:34.314Z,35.32
2022-08-12T11:07:06.106Z,35.33
2022-08-12T11:12:56.634Z,34.36
2022-08-12T11:15:33.342Z,35.21
2022-08-12T11:18:11.887Z,35.25
2022-08-12T11:20:45.341Z,35.52
2022-08-12T11:23:25.847Z,34.87
2022-08-12T11:26:04.991Z,34.84
2022-08-12T11:28:36.960Z,35.06
2022-08-12T11:31:05.920Z,34.84
2022-08-12T11:34:04.821Z,35.12
2022-08-12T11:36:22.252Z,35.73
2022-08-12T11:38:50.945Z,35.05
2022-08-12T11:41:27.969Z,34.95
2022-08-12T11:44:35.529Z,34.96
2022-08-12T11:46:52.885Z,36.17
2022-08-12T11:49:31.668Z,36.33
2022-08-12T11:52:02.806Z,36.97
2022-08-12T11:54:31.410Z,36.96
2022-08-12T11:57:00.322Z,36.48
2022-08-12T12:02:20.066Z,35.78
2022-08-12T12:04:52.974Z,36.09
2022-08-12T12:07:33.737Z,36.48
2022-08-12T12:10:10.288Z,37.27
2022-08-12T12:12:37.914Z,36.93
2022-08-12T12:15:12.418Z,35.91
2022-08-12T12:17:43.797Z,36.67
2022-08-12T12:20:13.689Z,37.43
2022-08-12T12:22:41.034Z,37.15
2022-08-12T12:25:13.172Z,37.11
2022-08-12T12:28:06.104Z,37.61
2022-08-12T12:30:34.648Z,37.83
2022-08-12T12:33:01.732Z,37.84
2022-08-12T12:36:06.099Z,38.41
2022-08-12T12:38:17.454Z,39.16
2022-08-12T12:40:45.753Z,39.48
2022-08-12T12:43:17.818Z,40.27
2022-08-12T12:46:05.968Z,39.46
2022-08-12T12:48:37.729Z,37.47
2022-08-12T12:51:51.754Z,36.68
2022-08-12T12:54:10.627Z,35.94
2022-08-12T12:56:42.671Z,35.80
2022-08-12T12:59:54.891Z,36.59
2022-08-12T13:02:08.053Z,36.60
2022-08-12T13:04:37.506Z,36.43
2022-08-12T13:07:05.931Z,36.98
2022-08-12T13:09:36.226Z,37.62
2022-08-12T13:12:04.985Z,37.12
2022-08-12T13:14:35.172Z,37.34
2022-08-12T13:17:06.099Z,38.05
2022-08-12T13:19:45.151Z,38.89
2022-08-12T13:22:21.456Z,39.22
2022-08-12T13:24:51.966Z,39.45
2022-08-12T13:27:28.401Z,39.40
2022-08-12T13:30:06.423Z,39.72
2022-08-12T13:32:36.692Z,39.03
2022-08-12T13:35:19.262Z,38.27
2022-08-12T13:37:57.038Z,38.47
2022-08-12T13:40:26.205Z,38.67
2022-08-12T13:42:57.999Z,39.65
2022-08-12T13:45:29.122Z,38.59
2022-08-12T13:47:56.443Z,37.89
2022-08-12T13:50:26.749Z,38.36
2022-08-12T13:52:53.661Z,39.24
2022-08-12T13:55:31.104Z,40.00
2022-08-12T13:58:01.698Z,40.06
2022-08-12T14:00:33.899Z,39.97
2022-08-12T14:03:05.896Z,40.23
2022-08-12T14:05:39.100Z,40.11
2022-08-12T14:08:06.953Z,39.89
2022-08-12T14:10:36.991Z,39.80
2022-08-12T14:13:10.403Z,40.24
2022-08-12T14:15:45.256Z,41.03
2022-08-12T14:18:16.411Z,41.16
2022-08-12T14:20:49.556Z,40.44
2022-08-12T14:24:04.389Z,40.26
2022-08-12T14:26:12.070Z,40.17
2022-08-12T14:28:39.743Z,39.56
2022-08-12T14:31:18.689Z,38.17
2022-08-12T14:33:48.996Z,37.99
2022-08-12T14:36:16.569Z,38.26
2022-08-12T14:38:44.480Z,38.25
2022-08-12T14:41:14.015Z,39.04
2022-08-12T14:43:44.265Z,38.45
2022-08-12T14:46:33.047Z,38.66
2022-08-12T14:49:27.348Z,38.49
2022-08-12T14:52:43.340Z,38.71
2022-08-12T14:57:33.654Z,38.92
2022-08-12T15:00:39.298Z,38.43
2022-08-12T15:03:06.448Z,38.69
2022-08-12T15:06:03.444Z,38.79
2022-08-12T15:08:26.401Z,38.70
2022-08-12T15:10:54.854Z,38.04
2022-08-12T15:13:23.377Z,37.91
2022-08-12T15:15:53.002Z,38.69
2022-08-12T15:18:22.892Z,38.62
2022-08-12T15:20:50.656Z,38.24
2022-08-12T15:23:21.733Z,38.47
2022-08-12T15:26:02.695Z,39.14
2022-08-12T15:28:32.249Z,38.79
2022-08-12T15:30:59.238Z,38.23
2022-08-12T15:33:45.435Z,37.96
2022-08-12T15:36:13.997Z,37.27
2022-08-12T15:38:42.031Z,34.81
2022-08-12T15:41:11.033Z,32.73
2022-08-12T15:44:17.183Z,31.54
2022-08-12T15:46:32.657Z,30.39
2022-08-12T15:49:02.261Z,29.97
2022-08-12T15:51:58.112Z,29.36
2022-08-12T15:54:35.299Z,29.28
2022-08-12T15:57:08.054Z,29.11
2022-08-12T16:00:00.148Z,29.02
2022-08-12T16:02:29.454Z,28.83
2022-08-12T16:04:58.945Z,28.60
2022-08-12T16:07:31.255Z,28.13
2022-08-12T16:10:06.019Z,27.81
2022-08-12T16:12:56.658Z,27.65
2022-08-12T16:15:24.922Z,27.60
2022-08-12T16:18:20.102Z,27.56
2022-08-12T16:20:48.860Z,27.30
2022-08-12T16:23:36.610Z,27.12
2022-08-12T16:26:14.747Z,26.96
2022-08-12T16:28:43.545Z,26.78
2022-08-12T16:31:22.759Z,26.81
2022-08-12T16:33:59.562Z,26.72
2022-08-12T16:36:31.304Z,26.81
2022-08-12T16:39:01.685Z,26.66
2022-08-12T16:41:37.813Z,26.49
2022-08-12T16:44:09.661Z,26.35
2022-08-12T16:46:39.852Z,26.23
2022-08-12T16:49:13.212Z,26.14
2022-08-12T16:54:37.276Z,26.00
2022-08-12T16:57:09.762Z,25.82
2022-08-12T16:59:54.214Z,25.62
2022-08-12T17:02:31.291Z,25.53
2022-08-12T17:05:00.000Z,25.42
2022-08-12T17:07:36.660Z,25.30
2022-08-12T17:10:08.324Z,25.18
2022-08-12T17:12:37.694Z,24.96
2022-08-12T17:15:51.274Z,24.81
2022-08-12T17:18:38.987Z,24.69
2022-08-12T17:20:49.523Z,24.63
2022-08-12T17:23:17.416Z,24.54
2022-08-12T17:25:49.072Z,24.45
2022-08-12T17:28:17.505Z,24.39
2022-08-12T17:30:44.465Z,24.22
2022-08-12T17:33:17.218Z,24.04
2022-08-12T17:35:52.233Z,23.93
2022-08-12T17:38:21.180Z,23.84
2022-08-12T17:40:48.242Z,23.74
2022-08-12T17:43:57.526Z,23.69
2022-08-12T17:48:57.821Z,23.35
2022-08-12T17:51:25.350Z,23.28
2022-08-12T17:56:37.035Z,23.12
2022-08-12T17:59:07.551Z,23.05
2022-08-12T18:01:35.997Z,22.90
2022-08-12T18:04:22.218Z,22.83
2022-08-12T18:06:55.852Z,22.78
2022-08-12T18:09:24.645Z,22.63
2022-08-12T18:12:17.521Z,22.54
2022-08-12T18:14:53.958Z,22.58
2022-08-12T18:20:07.671Z,22.44
2022-08-12T18:22:40.850Z,22.55
2022-08-12T18:26:13.861Z,22.71
2022-08-12T18:28:15.706Z,22.53
2022-08-12T18:30:53.055Z,22.33
2022-08-12T18:33:25.636Z,22.13
2022-08-12T18:35:55.620Z,21.87
2022-08-12T18:38:25.015Z,21.70
2022-08-12T18:41:21.885Z,21.63
2022-08-12T18:44:02.441Z,21.60
2022-08-12T18:46:46.925Z,21.60
2022-08-12T18:49:21.702Z,21.62
2022-08-12T18:51:54.847Z,21.58
2022-08-12T18:54:29.518Z,21.52
2022-08-12T18:56:59.394Z,21.36
2022-08-12T19:00:01.648Z,21.42
2022-08-12T19:02:21.104Z,21.34
2022-08-12T19:04:49.326Z,21.29
2022-08-12T19:07:21.959Z,21.31
2022-08-12T19:09:57.854Z,21.16
2022-08-12T19:12:55.369Z,21.00
2022-08-12T19:15:27.410Z,20.85
2022-08-12T19:18:02.604Z,20.77
2022-08-12T19:20:30.735Z,20.70
2022-08-12T19:23:22.278Z,20.64
2022-08-12T19:26:00.571Z,20.47
2022-08-12T19:28:29.865Z,20.39
2022-08-12T19:31:22.763Z,20.32
2022-08-12T19:34:37.670Z,20.23
2022-08-12T19:37:01.965Z,20.14
2022-08-12T19:39:29.727Z,20.10
2022-08-12T19:42:06.993Z,20.09
2022-08-12T19:44:38.160Z,20.01
2022-08-12T19:47:08.220Z,19.91
2022-08-12T19:49:37.141Z,19.85
2022-08-12T19:52:04.189Z,19.92
2022-08-12T19:54:31.006Z,19.95
2022-08-12T19:56:58.685Z,19.85
2022-08-12T19:59:43.610Z,19.75
2022-08-12T20:02:32.993Z,19.78
2022-08-12T20:06:05.682Z,19.65
2022-08-12T20:07:59.005Z,19.62
2022-08-12T20:10:35.575Z,19.60
2022-08-12T20:13:17.409Z,19.51
2022-08-12T20:15:46.047Z,19.42
2022-08-12T20:18:19.132Z,19.39
2022-08-12T20:21:14.741Z,19.29
2022-08-12T20:23:59.921Z,19.21
2022-08-12T20:26:48.334Z,19.07
2022-08-12T20:29:16.729Z,19.08
2022-08-12T20:31:46.329Z,18.99
2022-08-12T20:34:18.899Z,18.95
2022-08-12T20:36:47.606Z,18.89
2022-08-12T20:39:52.328Z,18.86
2022-08-12T20:42:16.377Z,18.88
2022-08-12T20:44:44.737Z,18.85
2022-08-12T20:47:20.263Z,18.80
2022-08-12T20:50:13.032Z,18.82
2022-08-12T20:52:47.480Z,18.78
2022-08-12T20:55:15.893Z,18.65
2022-08-12T20:58:01.863Z,18.54
2022-08-12T21:01:06.381Z,18.49
2022-08-12T21:07:11.398Z,18.48
2022-08-12T21:09:40.726Z,18.39
2022-08-12T21:12:28.783Z,18.32
2022-08-12T21:15:22.858Z,18.34
2022-08-12T21:18:27.330Z,18.30
2022-08-12T21:20:56.913Z,18.21
2022-08-12T21:23:25.387Z,18.17
2022-08-12T21:25:56.448Z,18.14
2022-08-12T21:28:30.771Z,18.08
2022-08-12T21:32:34.738Z,18.02
2022-08-12T21:34:07.712Z,17.98
2022-08-12T21:36:37.481Z,17.95
2022-08-12T21:39:35.267Z,18.02
2022-08-12T21:42:06.887Z,17.95
2022-08-12T21:45:45.539Z,17.91
2022-08-12T21:47:22.718Z,17.88
2022-08-12T21:50:02.905Z,17.88
2022-08-12T21:52:40.718Z,17.89
2022-08-12T21:55:18.638Z,17.98
2022-08-12T21:57:54.008Z,17.98
2022-08-12T22:00:32.514Z,17.96
2022-08-12T22:04:02.230Z,17.91
2022-08-12T22:06:26.551Z,17.93
2022-08-12T22:09:02.771Z,17.93
2022-08-12T22:11:42.175Z,17.94
2022-08-12T22:14:23.800Z,17.88
2022-08-12T22:16:55.038Z,17.82
2022-08-12T22:19:23.423Z,17.71
2022-08-12T22:21:53.838Z,17.63
2022-08-12T22:24:26.623Z,17.66
2022-08-12T22:27:28.186Z,17.65
2022-08-12T22:30:15.970Z,17.60
2022-08-12T22:32:50.955Z,17.60
2022-08-12T22:35:55.748Z,17.59
2022-08-12T22:38:25.134Z,17.51
2022-08-12T22:41:02.131Z,17.49
2022-08-12T22:44:00.493Z,17.45
2022-08-12T22:46:35.660Z,17.38
2022-08-12T22:49:06.687Z,17.30
2022-08-12T22:52:00.333Z,17.21
2022-08-12T22:54:36.920Z,17.15
2022-08-12T22:57:11.996Z,17.05
2022-08-12T22:59:51.043Z,17.01
2022-08-12T23:02:28.880Z,17.03
2022-08-12T23:05:00.093Z,16.94
2022-08-12T23:07:36.338Z,16.90
2022-08-12T23:10:17.763Z,16.84
2022-08-12T23:13:05.164Z,16.81
2022-08-12T23:15:33.553Z,16.80
2022-08-12T23:18:00.419Z,16.82
2022-08-12T23:20:27.687Z,16.86
2022-08-12T23:23:03.117Z,16.81
2022-08-12T23:31:30.380Z,16.68
2022-08-12T23:34:13.945Z,16.67
2022-08-12T23:36:46.072Z,16.65
2022-08-12T23:40:13.401Z,16.61
2022-08-12T23:42:16.708Z,16.52
2022-08-12T23:44:46.131Z,16.49
2022-08-12T23:47:14.331Z,16.47
2022-08-12T23:49:58.379Z,16.45
2022-08-12T23:52:34.253Z,16.47
2022-08-12T23:55:23.857Z,16.47
2022-08-12T23:58:17.645Z,16.41
